Terminal Aerodrome Forecast
Issued by NWS Grand Forks, ND

Home | Current Version | Previous Version | Text Only | Print | Product List | Glossary Off
Versions: 1 2 3 4 5 6 7 8 9 10 11 12 13 14 15 16

000
FTUS43 KFGF 152100 AAA
TAFGFK
TAF AMD
KGFK 152100Z 1521/1618 17029G39KT P6SM SKC
     FM160100 17015G24KT P6SM SKC
     FM160300 17013KT P6SM SKC
     FM160600 VRB05KT P6SM BKN150
     FM161400 33011KT P6SM BKN080=

USA.gov is the U.S. government's official web portal to all federal, state and local government web resources and services.